LFRZ/SNR METAR and TAF weather

Enter ICAO airport designator
Station Type Date Time Source
LFRZ METAR 2024/04/18 07:30 UTC NOAA

LFRZ 180730Z AUTO 02010KT CAVOK 10/06 Q1022 NOSIG


Station Type Date Time Source
LFRZ Decoded METAR 2024/04/18 07:30 UTC NOAA

St-Nazaire, France (LFRZ) 47-19N 002-10W 4M
Apr 18, 2024 - 03:30 AM EDT / 2024.04.18 0730 UTC
Wind: from the NNE (020 degrees) at 12 MPH (10 KT):0
Visibility: greater than 7 mile(s):0
Temperature: 50 F (10 C)
Dew Point: 42 F (6 C)
Relative Humidity: 76%
Pressure (altimeter): 30.18 in. Hg (1022 hPa)
ob: LFRZ 180730Z AUTO 02010KT CAVOK 10/06 Q1022 NOSIG
cycle: 7

Station Type Date Time Source
LFRZ TAF 2024/04/18 18:22 UTC NOAA